sensor_id;sensor_type;location;lat;lon;timestamp;temperature;humidity
19930;DHT22;10127;47.780;9.606;2023-05-07T00:01:08;15.40;99.90
19930;DHT22;10127;47.780;9.606;2023-05-07T00:03:33;15.40;99.90
19930;DHT22;10127;47.780;9.606;2023-05-07T00:05:59;15.40;99.90
19930;DHT22;10127;47.780;9.606;2023-05-07T00:08:25;15.30;99.90
19930;DHT22;10127;47.780;9.606;2023-05-07T00:10:50;15.10;99.90
19930;DHT22;10127;47.780;9.606;2023-05-07T00:13:16;15.20;99.90
19930;DHT22;10127;47.780;9.606;2023-05-07T00:15:42;15.20;99.90
19930;DHT22;10127;47.780;9.606;2023-05-07T00:18:07;15.20;99.90
19930;DHT22;10127;47.780;9.606;2023-05-07T00:20:33;15.10;99.90
19930;DHT22;10127;47.780;9.606;2023-05-07T00:22:58;15.20;99.90
19930;DHT22;10127;47.780;9.606;2023-05-07T00:25:24;15.20;99.90
19930;DHT22;10127;47.780;9.606;2023-05-07T00:27:49;15.10;99.90
19930;DHT22;10127;47.780;9.606;2023-05-07T00:30:15;15.10;99.90
19930;DHT22;10127;47.780;9.606;2023-05-07T00:32:41;15.10;99.90
19930;DHT22;10127;47.780;9.606;2023-05-07T00:35:07;15.00;99.90
19930;DHT22;10127;47.780;9.606;2023-05-07T00:37:33;15.00;99.90
19930;DHT22;10127;47.780;9.606;2023-05-07T00:39:58;15.00;99.90
19930;DHT22;10127;47.780;9.606;2023-05-07T00:42:24;15.00;99.90
19930;DHT22;10127;47.780;9.606;2023-05-07T00:44:50;15.00;99.90
19930;DHT22;10127;47.780;9.606;2023-05-07T00:47:16;15.00;99.90
19930;DHT22;10127;47.780;9.606;2023-05-07T00:49:42;15.00;99.90
19930;DHT22;10127;47.780;9.606;2023-05-07T00:52:14;15.10;99.90
19930;DHT22;10127;47.780;9.606;2023-05-07T00:54:41;15.00;99.90
19930;DHT22;10127;47.780;9.606;2023-05-07T00:57:06;15.10;99.90
19930;DHT22;10127;47.780;9.606;2023-05-07T00:59:34;15.00;99.90
19930;DHT22;10127;47.780;9.606;2023-05-07T01:02:00;15.00;99.90
19930;DHT22;10127;47.780;9.606;2023-05-07T01:04:26;15.00;99.90
19930;DHT22;10127;47.780;9.606;2023-05-07T01:06:53;14.90;99.90
19930;DHT22;10127;47.780;9.606;2023-05-07T01:09:21;14.90;99.90
19930;DHT22;10127;47.780;9.606;2023-05-07T01:11:49;14.90;99.90
19930;DHT22;10127;47.780;9.606;2023-05-07T01:14:15;15.00;99.90
19930;DHT22;10127;47.780;9.606;2023-05-07T01:16:41;15.00;99.90
19930;DHT22;10127;47.780;9.606;2023-05-07T01:19:08;15.00;99.90
19930;DHT22;10127;47.780;9.606;2023-05-07T01:21:33;14.90;99.90
19930;DHT22;10127;47.780;9.606;2023-05-07T01:24:02;14.90;99.90
19930;DHT22;10127;47.780;9.606;2023-05-07T01:26:28;14.90;99.90
19930;DHT22;10127;47.780;9.606;2023-05-07T01:28:53;14.80;99.90
19930;DHT22;10127;47.780;9.606;2023-05-07T01:31:19;14.80;99.90
19930;DHT22;10127;47.780;9.606;2023-05-07T01:33:46;14.70;99.90
19930;DHT22;10127;47.780;9.606;2023-05-07T01:36:13;14.70;99.90
19930;DHT22;10127;47.780;9.606;2023-05-07T01:38:39;14.70;99.90
19930;DHT22;10127;47.780;9.606;2023-05-07T01:41:06;14.70;99.90
19930;DHT22;10127;47.780;9.606;2023-05-07T01:43:32;14.70;99.90
19930;DHT22;10127;47.780;9.606;2023-05-07T01:45:58;14.60;99.90
19930;DHT22;10127;47.780;9.606;2023-05-07T01:48:25;14.70;99.90
19930;DHT22;10127;47.780;9.606;2023-05-07T01:50:51;14.70;99.90
19930;DHT22;10127;47.780;9.606;2023-05-07T01:53:17;14.70;99.90
19930;DHT22;10127;47.780;9.606;2023-05-07T01:55:43;14.60;99.90
19930;DHT22;10127;47.780;9.606;2023-05-07T01:58:08;14.50;99.90
19930;DHT22;10127;47.780;9.606;2023-05-07T02:00:34;14.40;99.90
19930;DHT22;10127;47.780;9.606;2023-05-07T02:02:59;14.50;99.90
19930;DHT22;10127;47.780;9.606;2023-05-07T02:05:25;14.50;99.90
19930;DHT22;10127;47.780;9.606;2023-05-07T02:07:51;14.50;99.90
19930;DHT22;10127;47.780;9.606;2023-05-07T02:10:16;14.40;99.90
19930;DHT22;10127;47.780;9.606;2023-05-07T02:12:42;14.30;99.90
19930;DHT22;10127;47.780;9.606;2023-05-07T02:15:08;14.20;99.90
19930;DHT22;10127;47.780;9.606;2023-05-07T02:17:34;14.10;99.90
19930;DHT22;10127;47.780;9.606;2023-05-07T02:19:59;14.10;99.90
19930;DHT22;10127;47.780;9.606;2023-05-07T02:22:25;14.20;99.90
19930;DHT22;10127;47.780;9.606;2023-05-07T02:24:51;14.10;99.90
19930;DHT22;10127;47.780;9.606;2023-05-07T02:27:16;14.10;99.90
19930;DHT22;10127;47.780;9.606;2023-05-07T02:29:42;14.10;99.90
19930;DHT22;10127;47.780;9.606;2023-05-07T02:32:07;14.10;99.90
19930;DHT22;10127;47.780;9.606;2023-05-07T02:34:33;14.00;99.90
19930;DHT22;10127;47.780;9.606;2023-05-07T02:36:58;14.00;99.90
19930;DHT22;10127;47.780;9.606;2023-05-07T02:39:24;13.90;99.90
19930;DHT22;10127;47.780;9.606;2023-05-07T02:41:50;14.00;99.90
19930;DHT22;10127;47.780;9.606;2023-05-07T02:44:15;13.90;99.90
19930;DHT22;10127;47.780;9.606;2023-05-07T02:46:41;13.80;99.90
19930;DHT22;10127;47.780;9.606;2023-05-07T02:49:06;13.90;99.90
19930;DHT22;10127;47.780;9.606;2023-05-07T03:12:09;13.50;99.90
19930;DHT22;10127;47.780;9.606;2023-05-07T03:14:35;13.50;99.90
19930;DHT22;10127;47.780;9.606;2023-05-07T03:17:00;13.40;99.90
19930;DHT22;10127;47.780;9.606;2023-05-07T03:19:26;13.40;99.90
19930;DHT22;10127;47.780;9.606;2023-05-07T03:21:52;13.40;99.90
19930;DHT22;10127;47.780;9.606;2023-05-07T03:24:17;13.40;99.90
19930;DHT22;10127;47.780;9.606;2023-05-07T03:26:43;13.40;99.90
19930;DHT22;10127;47.780;9.606;2023-05-07T03:29:08;13.40;99.90
19930;DHT22;10127;47.780;9.606;2023-05-07T03:31:34;13.40;99.90
19930;DHT22;10127;47.780;9.606;2023-05-07T03:34:00;13.40;99.90
19930;DHT22;10127;47.780;9.606;2023-05-07T03:36:25;13.40;99.90
19930;DHT22;10127;47.780;9.606;2023-05-07T03:38:54;13.30;99.90
19930;DHT22;10127;47.780;9.606;2023-05-07T03:41:19;13.30;99.90
19930;DHT22;10127;47.780;9.606;2023-05-07T03:43:45;13.20;99.90
19930;DHT22;10127;47.780;9.606;2023-05-07T03:46:11;13.10;99.90
19930;DHT22;10127;47.780;9.606;2023-05-07T03:48:36;13.20;99.90
19930;DHT22;10127;47.780;9.606;2023-05-07T03:51:02;13.30;99.90
19930;DHT22;10127;47.780;9.606;2023-05-07T03:53:27;13.20;99.90
19930;DHT22;10127;47.780;9.606;2023-05-07T03:55:53;13.10;99.90
19930;DHT22;10127;47.780;9.606;2023-05-07T03:58:18;13.10;99.90
19930;DHT22;10127;47.780;9.606;2023-05-07T04:00:44;13.10;99.90
19930;DHT22;10127;47.780;9.606;2023-05-07T04:03:10;13.10;99.90
19930;DHT22;10127;47.780;9.606;2023-05-07T04:05:35;13.00;99.90
19930;DHT22;10127;47.780;9.606;2023-05-07T04:08:01;13.00;99.90
19930;DHT22;10127;47.780;9.606;2023-05-07T04:10:29;13.00;99.90
19930;DHT22;10127;47.780;9.606;2023-05-07T04:12:54;12.90;99.90
19930;DHT22;10127;47.780;9.606;2023-05-07T04:15:20;12.70;99.90
19930;DHT22;10127;47.780;9.606;2023-05-07T04:17:45;12.80;99.90
19930;DHT22;10127;47.780;9.606;2023-05-07T04:20:14;12.70;99.90
19930;DHT22;10127;47.780;9.606;2023-05-07T04:22:40;12.80;99.90
19930;DHT22;10127;47.780;9.606;2023-05-07T04:25:06;12.90;99.90
19930;DHT22;10127;47.780;9.606;2023-05-07T04:27:33;13.00;99.90
19930;DHT22;10127;47.780;9.606;2023-05-07T04:29:58;13.00;99.90
19930;DHT22;10127;47.780;9.606;2023-05-07T04:32:26;13.10;99.90
19930;DHT22;10127;47.780;9.606;2023-05-07T04:34:58;13.20;99.90
19930;DHT22;10127;47.780;9.606;2023-05-07T04:37:25;13.30;99.90
19930;DHT22;10127;47.780;9.606;2023-05-07T04:39:51;13.30;99.90
19930;DHT22;10127;47.780;9.606;2023-05-07T04:42:17;13.30;99.90
19930;DHT22;10127;47.780;9.606;2023-05-07T04:44:44;13.30;99.90
19930;DHT22;10127;47.780;9.606;2023-05-07T04:47:10;13.30;99.90
19930;DHT22;10127;47.780;9.606;2023-05-07T04:49:37;13.40;99.90
19930;DHT22;10127;47.780;9.606;2023-05-07T04:52:03;13.50;99.90
19930;DHT22;10127;47.780;9.606;2023-05-07T04:54:29;13.50;99.90
19930;DHT22;10127;47.780;9.606;2023-05-07T04:56:55;13.50;99.90
19930;DHT22;10127;47.780;9.606;2023-05-07T04:59:20;13.60;99.90
19930;DHT22;10127;47.780;9.606;2023-05-07T05:01:46;14.20;99.90
19930;DHT22;10127;47.780;9.606;2023-05-07T05:04:12;14.30;99.90
19930;DHT22;10127;47.780;9.606;2023-05-07T05:06:38;14.20;99.90
19930;DHT22;10127;47.780;9.606;2023-05-07T05:09:04;14.10;99.90
19930;DHT22;10127;47.780;9.606;2023-05-07T05:11:30;14.20;99.90
19930;DHT22;10127;47.780;9.606;2023-05-07T05:13:56;14.00;99.90
19930;DHT22;10127;47.780;9.606;2023-05-07T05:16:22;13.90;99.90
19930;DHT22;10127;47.780;9.606;2023-05-07T05:18:47;13.80;99.90
19930;DHT22;10127;47.780;9.606;2023-05-07T05:21:13;13.90;99.90
19930;DHT22;10127;47.780;9.606;2023-05-07T05:23:39;14.00;99.90
19930;DHT22;10127;47.780;9.606;2023-05-07T05:26:04;14.00;99.90
19930;DHT22;10127;47.780;9.606;2023-05-07T05:28:30;14.00;99.90
19930;DHT22;10127;47.780;9.606;2023-05-07T05:30:55;14.10;99.90
19930;DHT22;10127;47.780;9.606;2023-05-07T05:33:21;14.30;99.90
19930;DHT22;10127;47.780;9.606;2023-05-07T05:35:46;14.40;99.90
19930;DHT22;10127;47.780;9.606;2023-05-07T05:38:12;14.30;99.90
19930;DHT22;10127;47.780;9.606;2023-05-07T05:40:38;14.30;99.90
19930;DHT22;10127;47.780;9.606;2023-05-07T05:43:04;14.30;99.90
19930;DHT22;10127;47.780;9.606;2023-05-07T05:45:29;14.20;99.90
19930;DHT22;10127;47.780;9.606;2023-05-07T05:47:56;14.30;99.90
19930;DHT22;10127;47.780;9.606;2023-05-07T05:50:22;14.30;99.90
19930;DHT22;10127;47.780;9.606;2023-05-07T05:52:47;14.50;99.90
19930;DHT22;10127;47.780;9.606;2023-05-07T05:55:13;14.50;99.90
19930;DHT22;10127;47.780;9.606;2023-05-07T05:57:39;14.50;99.90
19930;DHT22;10127;47.780;9.606;2023-05-07T06:00:06;14.60;99.90
19930;DHT22;10127;47.780;9.606;2023-05-07T06:02:32;14.60;99.90
19930;DHT22;10127;47.780;9.606;2023-05-07T06:04:57;14.70;99.90
19930;DHT22;10127;47.780;9.606;2023-05-07T06:07:23;14.80;99.90
19930;DHT22;10127;47.780;9.606;2023-05-07T06:09:48;14.90;99.90
19930;DHT22;10127;47.780;9.606;2023-05-07T06:12:14;15.00;99.90
19930;DHT22;10127;47.780;9.606;2023-05-07T06:14:39;15.00;99.90
19930;DHT22;10127;47.780;9.606;2023-05-07T06:17:07;15.10;99.90
19930;DHT22;10127;47.780;9.606;2023-05-07T06:19:32;15.20;99.90
19930;DHT22;10127;47.780;9.606;2023-05-07T06:21:58;15.40;99.90
19930;DHT22;10127;47.780;9.606;2023-05-07T06:24:24;15.50;99.90
19930;DHT22;10127;47.780;9.606;2023-05-07T06:26:49;15.60;99.90
19930;DHT22;10127;47.780;9.606;2023-05-07T06:29:15;15.70;99.90
19930;DHT22;10127;47.780;9.606;2023-05-07T06:31:41;15.90;99.90
19930;DHT22;10127;47.780;9.606;2023-05-07T06:34:07;15.90;99.90
19930;DHT22;10127;47.780;9.606;2023-05-07T06:36:33;16.00;99.90
19930;DHT22;10127;47.780;9.606;2023-05-07T06:38:59;16.20;99.90
19930;DHT22;10127;47.780;9.606;2023-05-07T06:41:25;16.20;99.90
19930;DHT22;10127;47.780;9.606;2023-05-07T06:43:51;16.30;99.90
19930;DHT22;10127;47.780;9.606;2023-05-07T06:46:16;16.40;99.90
19930;DHT22;10127;47.780;9.606;2023-05-07T06:48:48;16.60;99.90
19930;DHT22;10127;47.780;9.606;2023-05-07T06:51:14;16.80;99.90
19930;DHT22;10127;47.780;9.606;2023-05-07T06:53:39;17.00;99.90
19930;DHT22;10127;47.780;9.606;2023-05-07T06:56:05;17.20;99.90
19930;DHT22;10127;47.780;9.606;2023-05-07T06:58:31;17.30;99.90
19930;DHT22;10127;47.780;9.606;2023-05-07T07:00:57;17.30;99.90
19930;DHT22;10127;47.780;9.606;2023-05-07T07:03:22;17.50;99.90
19930;DHT22;10127;47.780;9.606;2023-05-07T07:05:51;17.60;99.90
19930;DHT22;10127;47.780;9.606;2023-05-07T07:08:17;17.60;99.90
19930;DHT22;10127;47.780;9.606;2023-05-07T07:10:43;17.60;99.90
19930;DHT22;10127;47.780;9.606;2023-05-07T07:13:08;17.80;99.90
19930;DHT22;10127;47.780;9.606;2023-05-07T07:15:34;17.70;99.90
19930;DHT22;10127;47.780;9.606;2023-05-07T07:17:59;17.70;99.90
19930;DHT22;10127;47.780;9.606;2023-05-07T07:20:25;17.60;99.90
19930;DHT22;10127;47.780;9.606;2023-05-07T07:22:51;17.70;99.90
19930;DHT22;10127;47.780;9.606;2023-05-07T07:25:16;17.70;99.90
19930;DHT22;10127;47.780;9.606;2023-05-07T07:27:42;17.70;99.90
19930;DHT22;10127;47.780;9.606;2023-05-07T07:30:07;17.80;99.90
19930;DHT22;10127;47.780;9.606;2023-05-07T07:32:34;17.80;99.90
19930;DHT22;10127;47.780;9.606;2023-05-07T07:34:59;17.70;99.90
19930;DHT22;10127;47.780;9.606;2023-05-07T07:37:25;17.70;99.90
19930;DHT22;10127;47.780;9.606;2023-05-07T07:39:51;17.70;99.90
19930;DHT22;10127;47.780;9.606;2023-05-07T07:42:16;17.70;99.90
19930;DHT22;10127;47.780;9.606;2023-05-07T07:44:42;17.80;99.90
19930;DHT22;10127;47.780;9.606;2023-05-07T07:47:07;17.90;99.90
19930;DHT22;10127;47.780;9.606;2023-05-07T07:49:33;17.90;99.90
19930;DHT22;10127;47.780;9.606;2023-05-07T07:51:58;17.90;99.90
19930;DHT22;10127;47.780;9.606;2023-05-07T07:54:25;17.90;99.90
19930;DHT22;10127;47.780;9.606;2023-05-07T07:56:51;18.00;99.90
19930;DHT22;10127;47.780;9.606;2023-05-07T07:59:16;18.10;99.90
19930;DHT22;10127;47.780;9.606;2023-05-07T08:01:44;18.00;99.90
19930;DHT22;10127;47.780;9.606;2023-05-07T08:04:10;18.10;99.90
19930;DHT22;10127;47.780;9.606;2023-05-07T08:06:35;18.20;99.90
19930;DHT22;10127;47.780;9.606;2023-05-07T08:09:01;18.20;99.90
19930;DHT22;10127;47.780;9.606;2023-05-07T08:11:27;18.30;99.90
19930;DHT22;10127;47.780;9.606;2023-05-07T08:13:54;18.40;99.90
19930;DHT22;10127;47.780;9.606;2023-05-07T08:16:20;18.50;99.90
19930;DHT22;10127;47.780;9.606;2023-05-07T08:18:45;18.60;99.90
19930;DHT22;10127;47.780;9.606;2023-05-07T08:21:11;18.60;99.90
19930;DHT22;10127;47.780;9.606;2023-05-07T08:23:36;18.70;99.90
19930;DHT22;10127;47.780;9.606;2023-05-07T08:26:10;18.70;99.90
19930;DHT22;10127;47.780;9.606;2023-05-07T08:28:36;18.80;99.90
19930;DHT22;10127;47.780;9.606;2023-05-07T08:31:02;18.80;99.90
19930;DHT22;10127;47.780;9.606;2023-05-07T08:33:27;18.80;99.90
19930;DHT22;10127;47.780;9.606;2023-05-07T08:35:53;18.90;99.90
19930;DHT22;10127;47.780;9.606;2023-05-07T08:38:18;19.00;99.90
19930;DHT22;10127;47.780;9.606;2023-05-07T08:40:44;19.10;99.90
19930;DHT22;10127;47.780;9.606;2023-05-07T08:43:17;19.10;99.90
19930;DHT22;10127;47.780;9.606;2023-05-07T08:45:45;19.20;99.90
19930;DHT22;10127;47.780;9.606;2023-05-07T08:48:15;19.20;99.90
19930;DHT22;10127;47.780;9.606;2023-05-07T08:50:41;19.20;99.90
19930;DHT22;10127;47.780;9.606;2023-05-07T08:53:07;19.40;99.90
19930;DHT22;10127;47.780;9.606;2023-05-07T08:55:32;19.50;99.90
19930;DHT22;10127;47.780;9.606;2023-05-07T08:57:59;19.60;99.90
19930;DHT22;10127;47.780;9.606;2023-05-07T09:00:24;19.50;99.90
19930;DHT22;10127;47.780;9.606;2023-05-07T09:02:50;19.60;99.90
19930;DHT22;10127;47.780;9.606;2023-05-07T09:05:16;19.70;99.90
19930;DHT22;10127;47.780;9.606;2023-05-07T09:07:41;19.80;99.90
19930;DHT22;10127;47.780;9.606;2023-05-07T09:10:07;19.80;99.90
19930;DHT22;10127;47.780;9.606;2023-05-07T09:12:33;19.90;99.90
19930;DHT22;10127;47.780;9.606;2023-05-07T09:15:00;20.00;99.90
19930;DHT22;10127;47.780;9.606;2023-05-07T09:17:26;20.00;99.90
19930;DHT22;10127;47.780;9.606;2023-05-07T09:19:52;20.10;99.90
19930;DHT22;10127;47.780;9.606;2023-05-07T09:22:18;20.30;99.90
19930;DHT22;10127;47.780;9.606;2023-05-07T09:24:48;20.40;99.90
19930;DHT22;10127;47.780;9.606;2023-05-07T09:27:15;20.50;99.90
19930;DHT22;10127;47.780;9.606;2023-05-07T09:29:40;20.50;99.90
19930;DHT22;10127;47.780;9.606;2023-05-07T09:32:07;20.70;99.90
19930;DHT22;10127;47.780;9.606;2023-05-07T09:34:34;20.80;99.90
19930;DHT22;10127;47.780;9.606;2023-05-07T09:37:04;20.70;99.90
19930;DHT22;10127;47.780;9.606;2023-05-07T09:42:12;20.90;99.90
19930;DHT22;10127;47.780;9.606;2023-05-07T09:44:40;21.00;99.90
19930;DHT22;10127;47.780;9.606;2023-05-07T09:47:06;21.00;99.90
19930;DHT22;10127;47.780;9.606;2023-05-07T09:49:35;21.10;99.90
19930;DHT22;10127;47.780;9.606;2023-05-07T09:52:05;21.10;99.90
19930;DHT22;10127;47.780;9.606;2023-05-07T09:54:32;21.20;99.90
19930;DHT22;10127;47.780;9.606;2023-05-07T09:56:59;21.30;99.90
19930;DHT22;10127;47.780;9.606;2023-05-07T09:59:28;21.50;99.90
19930;DHT22;10127;47.780;9.606;2023-05-07T10:01:57;21.50;99.90
19930;DHT22;10127;47.780;9.606;2023-05-07T10:04:24;21.60;99.90
19930;DHT22;10127;47.780;9.606;2023-05-07T10:06:50;21.70;99.90
19930;DHT22;10127;47.780;9.606;2023-05-07T10:09:16;21.80;99.90
19930;DHT22;10127;47.780;9.606;2023-05-07T10:11:42;21.80;99.90
19930;DHT22;10127;47.780;9.606;2023-05-07T10:14:09;21.80;99.90
19930;DHT22;10127;47.780;9.606;2023-05-07T10:16:36;21.90;99.90
19930;DHT22;10127;47.780;9.606;2023-05-07T10:19:06;22.00;99.90
19930;DHT22;10127;47.780;9.606;2023-05-07T10:21:35;22.00;99.90
19930;DHT22;10127;47.780;9.606;2023-05-07T10:24:16;21.90;99.90
19930;DHT22;10127;47.780;9.606;2023-05-07T10:26:48;22.00;99.90
19930;DHT22;10127;47.780;9.606;2023-05-07T10:34:37;22.10;99.90
19930;DHT22;10127;47.780;9.606;2023-05-07T10:37:03;22.10;99.90
19930;DHT22;10127;47.780;9.606;2023-05-07T10:39:29;22.20;99.90
19930;DHT22;10127;47.780;9.606;2023-05-07T10:41:56;22.40;99.90
19930;DHT22;10127;47.780;9.606;2023-05-07T10:44:26;22.40;99.90
19930;DHT22;10127;47.780;9.606;2023-05-07T10:47:06;22.40;99.90
19930;DHT22;10127;47.780;9.606;2023-05-07T10:52:16;22.90;99.90
19930;DHT22;10127;47.780;9.606;2023-05-07T10:54:43;22.70;99.90
19930;DHT22;10127;47.780;9.606;2023-05-07T10:59:57;22.90;99.90
19930;DHT22;10127;47.780;9.606;2023-05-07T11:02:23;23.10;99.90
19930;DHT22;10127;47.780;9.606;2023-05-07T11:05:20;23.00;99.90
19930;DHT22;10127;47.780;9.606;2023-05-07T11:07:59;23.20;99.90
19930;DHT22;10127;47.780;9.606;2023-05-07T11:13:48;23.50;99.90
19930;DHT22;10127;47.780;9.606;2023-05-07T11:16:24;23.40;99.90
19930;DHT22;10127;47.780;9.606;2023-05-07T11:18:55;23.60;99.90
19930;DHT22;10127;47.780;9.606;2023-05-07T11:21:40;23.60;99.90
19930;DHT22;10127;47.780;9.606;2023-05-07T11:24:08;23.70;99.90
19930;DHT22;10127;47.780;9.606;2023-05-07T11:26:45;23.60;99.90
19930;DHT22;10127;47.780;9.606;2023-05-07T11:29:21;23.70;99.90
19930;DHT22;10127;47.780;9.606;2023-05-07T11:31:51;23.60;99.90
19930;DHT22;10127;47.780;9.606;2023-05-07T11:34:22;23.60;99.90
19930;DHT22;10127;47.780;9.606;2023-05-07T11:36:48;23.80;99.90
19930;DHT22;10127;47.780;9.606;2023-05-07T11:41:52;23.80;99.90
19930;DHT22;10127;47.780;9.606;2023-05-07T11:44:18;24.20;99.90
19930;DHT22;10127;47.780;9.606;2023-05-07T11:46:44;24.10;99.90
19930;DHT22;10127;47.780;9.606;2023-05-07T11:49:10;24.20;99.90
19930;DHT22;10127;47.780;9.606;2023-05-07T11:51:36;24.40;99.90
19930;DHT22;10127;47.780;9.606;2023-05-07T11:54:04;24.40;99.90
19930;DHT22;10127;47.780;9.606;2023-05-07T11:56:34;24.30;99.30
19930;DHT22;10127;47.780;9.606;2023-05-07T11:59:00;24.60;99.10
19930;DHT22;10127;47.780;9.606;2023-05-07T12:01:25;24.80;99.10
19930;DHT22;10127;47.780;9.606;2023-05-07T12:03:51;24.80;99.30
19930;DHT22;10127;47.780;9.606;2023-05-07T12:06:17;24.80;99.00
19930;DHT22;10127;47.780;9.606;2023-05-07T12:08:44;24.80;97.90
19930;DHT22;10127;47.780;9.606;2023-05-07T12:11:16;24.80;98.00
19930;DHT22;10127;47.780;9.606;2023-05-07T12:13:46;24.80;98.10
19930;DHT22;10127;47.780;9.606;2023-05-07T12:16:12;24.70;98.30
19930;DHT22;10127;47.780;9.606;2023-05-07T12:18:39;24.60;99.10
19930;DHT22;10127;47.780;9.606;2023-05-07T12:21:05;24.80;98.10
19930;DHT22;10127;47.780;9.606;2023-05-07T12:23:32;24.70;98.30
19930;DHT22;10127;47.780;9.606;2023-05-07T12:25:59;24.80;98.40
19930;DHT22;10127;47.780;9.606;2023-05-07T12:28:25;24.80;98.40
19930;DHT22;10127;47.780;9.606;2023-05-07T12:30:51;24.80;98.40
19930;DHT22;10127;47.780;9.606;2023-05-07T12:33:18;24.90;96.80
19930;DHT22;10127;47.780;9.606;2023-05-07T12:35:47;25.00;97.80
19930;DHT22;10127;47.780;9.606;2023-05-07T12:38:14;25.00;97.60
19930;DHT22;10127;47.780;9.606;2023-05-07T12:40:41;24.90;98.00
19930;DHT22;10127;47.780;9.606;2023-05-07T12:43:08;25.00;97.90
19930;DHT22;10127;47.780;9.606;2023-05-07T12:45:41;25.00;97.30
19930;DHT22;10127;47.780;9.606;2023-05-07T12:48:07;25.00;96.40
19930;DHT22;10127;47.780;9.606;2023-05-07T12:50:35;25.00;97.10
19930;DHT22;10127;47.780;9.606;2023-05-07T12:53:03;25.10;96.90
19930;DHT22;10127;47.780;9.606;2023-05-07T12:55:31;25.10;97.40
19930;DHT22;10127;47.780;9.606;2023-05-07T12:58:01;25.40;96.50
19930;DHT22;10127;47.780;9.606;2023-05-07T13:00:37;25.50;95.90
19930;DHT22;10127;47.780;9.606;2023-05-07T13:03:03;25.50;96.60
19930;DHT22;10127;47.780;9.606;2023-05-07T13:05:30;25.60;96.80
19930;DHT22;10127;47.780;9.606;2023-05-07T13:07:56;25.60;96.70
19930;DHT22;10127;47.780;9.606;2023-05-07T13:10:22;26.00;96.80
19930;DHT22;10127;47.780;9.606;2023-05-07T13:12:49;25.90;96.20
19930;DHT22;10127;47.780;9.606;2023-05-07T13:15:14;25.90;95.60
19930;DHT22;10127;47.780;9.606;2023-05-07T13:17:40;26.00;95.60
19930;DHT22;10127;47.780;9.606;2023-05-07T13:20:06;26.10;95.70
19930;DHT22;10127;47.780;9.606;2023-05-07T13:22:33;26.20;95.40
19930;DHT22;10127;47.780;9.606;2023-05-07T13:24:59;26.10;95.10
19930;DHT22;10127;47.780;9.606;2023-05-07T13:27:24;25.90;95.60
19930;DHT22;10127;47.780;9.606;2023-05-07T13:29:50;25.70;95.60
19930;DHT22;10127;47.780;9.606;2023-05-07T13:32:16;25.60;95.80
19930;DHT22;10127;47.780;9.606;2023-05-07T13:34:41;25.60;95.90
19930;DHT22;10127;47.780;9.606;2023-05-07T13:37:07;25.70;95.20
19930;DHT22;10127;47.780;9.606;2023-05-07T13:39:33;25.60;95.70
19930;DHT22;10127;47.780;9.606;2023-05-07T13:41:58;25.70;95.30
19930;DHT22;10127;47.780;9.606;2023-05-07T13:44:24;25.80;95.80
19930;DHT22;10127;47.780;9.606;2023-05-07T13:46:50;26.00;95.40
19930;DHT22;10127;47.780;9.606;2023-05-07T13:49:15;26.20;94.80
19930;DHT22;10127;47.780;9.606;2023-05-07T13:51:41;26.20;94.60
19930;DHT22;10127;47.780;9.606;2023-05-07T13:54:06;26.60;94.20
19930;DHT22;10127;47.780;9.606;2023-05-07T13:56:32;26.90;93.70
19930;DHT22;10127;47.780;9.606;2023-05-07T13:58:58;27.00;93.80
19930;DHT22;10127;47.780;9.606;2023-05-07T14:01:24;27.00;93.80
19930;DHT22;10127;47.780;9.606;2023-05-07T14:03:49;26.80;93.00
19930;DHT22;10127;47.780;9.606;2023-05-07T14:06:15;26.50;93.40
19930;DHT22;10127;47.780;9.606;2023-05-07T14:08:40;26.00;94.00
19930;DHT22;10127;47.780;9.606;2023-05-07T14:11:06;25.90;94.40
19930;DHT22;10127;47.780;9.606;2023-05-07T14:13:31;25.90;94.20
19930;DHT22;10127;47.780;9.606;2023-05-07T14:15:57;25.70;94.10
19930;DHT22;10127;47.780;9.606;2023-05-07T14:18:23;25.90;94.00
19930;DHT22;10127;47.780;9.606;2023-05-07T14:20:49;26.10;94.80
19930;DHT22;10127;47.780;9.606;2023-05-07T14:23:14;26.00;94.40
19930;DHT22;10127;47.780;9.606;2023-05-07T14:25:40;26.10;94.20
19930;DHT22;10127;47.780;9.606;2023-05-07T14:28:06;26.40;94.70
19930;DHT22;10127;47.780;9.606;2023-05-07T14:30:32;26.60;94.60
19930;DHT22;10127;47.780;9.606;2023-05-07T14:32:57;26.80;93.10
19930;DHT22;10127;47.780;9.606;2023-05-07T14:35:23;26.50;93.00
19930;DHT22;10127;47.780;9.606;2023-05-07T14:37:48;26.40;94.90
19930;DHT22;10127;47.780;9.606;2023-05-07T14:40:14;26.30;95.90
19930;DHT22;10127;47.780;9.606;2023-05-07T14:42:40;26.10;95.60
19930;DHT22;10127;47.780;9.606;2023-05-07T14:45:06;25.90;96.30
19930;DHT22;10127;47.780;9.606;2023-05-07T14:47:38;25.60;96.10
19930;DHT22;10127;47.780;9.606;2023-05-07T14:50:04;25.30;96.40
19930;DHT22;10127;47.780;9.606;2023-05-07T14:52:30;25.10;96.40
19930;DHT22;10127;47.780;9.606;2023-05-07T14:54:55;25.20;97.10
19930;DHT22;10127;47.780;9.606;2023-05-07T14:57:21;25.10;96.80
19930;DHT22;10127;47.780;9.606;2023-05-07T14:59:47;24.70;95.40
19930;DHT22;10127;47.780;9.606;2023-05-07T15:02:12;24.20;95.20
19930;DHT22;10127;47.780;9.606;2023-05-07T15:04:38;23.80;94.00
19930;DHT22;10127;47.780;9.606;2023-05-07T15:07:11;23.60;94.60
19930;DHT22;10127;47.780;9.606;2023-05-07T15:09:37;23.30;95.00
19930;DHT22;10127;47.780;9.606;2023-05-07T15:12:02;23.40;94.80
19930;DHT22;10127;47.780;9.606;2023-05-07T15:14:29;23.70;94.90
19930;DHT22;10127;47.780;9.606;2023-05-07T15:16:54;23.60;95.10
19930;DHT22;10127;47.780;9.606;2023-05-07T15:19:20;23.70;95.70
19930;DHT22;10127;47.780;9.606;2023-05-07T15:21:47;23.90;96.20
19930;DHT22;10127;47.780;9.606;2023-05-07T15:24:13;23.70;96.50
19930;DHT22;10127;47.780;9.606;2023-05-07T15:26:38;23.80;96.70
19930;DHT22;10127;47.780;9.606;2023-05-07T15:29:04;24.00;96.60
19930;DHT22;10127;47.780;9.606;2023-05-07T15:31:35;24.20;96.50
19930;DHT22;10127;47.780;9.606;2023-05-07T15:34:02;23.80;96.20
19930;DHT22;10127;47.780;9.606;2023-05-07T15:36:27;24.00;96.30
19930;DHT22;10127;47.780;9.606;2023-05-07T15:38:53;24.10;96.00
19930;DHT22;10127;47.780;9.606;2023-05-07T15:41:18;24.00;95.40
19930;DHT22;10127;47.780;9.606;2023-05-07T15:43:48;23.70;95.10
19930;DHT22;10127;47.780;9.606;2023-05-07T15:46:22;23.70;96.00
19930;DHT22;10127;47.780;9.606;2023-05-07T15:48:52;24.30;96.00
19930;DHT22;10127;47.780;9.606;2023-05-07T15:51:18;25.80;94.80
19930;DHT22;10127;47.780;9.606;2023-05-07T15:53:45;26.20;94.10
19930;DHT22;10127;47.780;9.606;2023-05-07T15:56:10;25.50;94.20
19930;DHT22;10127;47.780;9.606;2023-05-07T15:58:36;24.50;95.70
19930;DHT22;10127;47.780;9.606;2023-05-07T16:01:02;24.00;96.60
19930;DHT22;10127;47.780;9.606;2023-05-07T16:03:28;23.70;97.60
19930;DHT22;10127;47.780;9.606;2023-05-07T16:05:54;23.30;98.20